Time;durP1;ratioP1;P1;durP2;ratioP2;P2;SDS_P1;SDS_P2;PMS_P1;PMS_P2;Temp;Humidity;BMP_temperature;BMP_pressure;BME280_temperature;BME280_humidity;BME280_pressure;Samples;Min_cycle;Max_cycle;Signal;HPM_P1;HPM_P2
2022/05/26 05:27:34;;;;;;;;;1.25;1.00;;;;;-143.39;100.00;63593.47;5105859;23;45780;-78
2022/05/26 05:30:32;;;;;;;;;1.75;0.00;;;;;-143.39;100.00;63593.47;4827644;29;45263;-78
2022/05/26 05:33:48;;;;;;;;;1.00;1.00;;;;;-143.39;100.00;63593.47;4840600;29;45487;-78
2022/05/26 05:36:32;;;;;;;;;1.00;1.00;;;;;-143.39;100.00;63593.47;4843525;29;45618;-78
2022/05/26 05:39:01;;;;;;;;;0.50;0.50;;;;;-143.39;100.00;63593.47;4848266;29;45483;-78
2022/05/26 05:41:31;;;;;;;;;1.00;1.00;;;;;-143.39;100.00;63593.47;4847369;29;45554;-79
2022/05/26 05:43:57;;;;;;;;;1.00;0.00;;;;;-143.39;100.00;63593.47;4849067;29;45298;-79
2022/05/26 05:46:27;;;;;;;;;2.00;0.50;;;;;-143.39;100.00;63593.47;4849129;29;45300;-79
2022/05/26 05:49:02;;;;;;;;;0.75;0.75;;;;;-143.39;100.00;63593.47;4848779;29;45506;-78
2022/05/26 05:51:28;;;;;;;;;1.75;0.50;;;;;-143.39;100.00;63593.47;4831546;29;45563;-78
2022/05/26 05:53:56;;;;;;;;;2.25;1.00;;;;;-143.39;100.00;63593.47;4849418;29;45350;-78
2022/05/26 05:56:23;;;;;;;;;2.00;0.00;;;;;-143.39;100.00;63593.47;4832331;29;45661;-78
2022/05/26 05:58:51;;;;;;;;;1.00;0.00;;;;;-143.39;100.00;63593.47;4849057;29;46300;-78
2022/05/26 06:01:24;;;;;;;;;0.00;0.00;;;;;-143.39;100.00;63593.47;4820290;29;45582;-78
2022/05/26 06:03:52;;;;;;;;;0.00;0.00;;;;;-143.39;100.00;63593.47;4849161;29;45484;-78
2022/05/26 06:06:17;;;;;;;;;1.00;1.00;;;;;-143.39;100.00;63593.47;4832120;29;45422;-78
2022/05/26 06:08:45;;;;;;;;;2.00;1.00;;;;;-143.39;100.00;63593.47;4848819;29;46377;-78
2022/05/26 06:11:10;;;;;;;;;2.00;0.00;;;;;-143.39;100.00;63593.47;4849307;29;45157;-78
2022/05/26 06:13:47;;;;;;;;;1.75;1.00;;;;;-143.39;100.00;63593.47;4849012;29;45247;-78
2022/05/26 06:16:15;;;;;;;;;0.00;0.00;;;;;-143.39;100.00;63593.47;4832199;29;45274;-79
2022/05/26 06:18:53;;;;;;;;;;;;;;;;;;;;;
2022/05/26 06:21:21;;;;;;;;;0.75;0.00;;;;;-143.39;100.00;63593.47;4847630;29;71681;-79
2022/05/26 06:23:49;;;;;;;;;3.00;1.00;;;;;-143.39;100.00;63593.47;4848770;29;45231;-78
2022/05/26 06:26:17;;;;;;;;;1.50;1.00;;;;;-143.39;100.00;63593.47;4848546;29;45416;-78
2022/05/26 06:31:35;;;;;;;;;0.00;0.00;;;;;-143.39;100.00;63593.47;4848444;29;45388;-78
2022/05/26 06:39:39;;;;;;;;;;;;;;;;;;;;;
2022/05/26 06:42:18;;;;;;;;;;;;;;;;;;;;;
2022/05/26 06:44:49;;;;;;;;;1.75;0.50;;;;;-143.39;100.00;63593.47;4847207;29;67683;-79
2022/05/26 06:47:31;;;;;;;;;1.00;1.00;;;;;-143.39;100.00;63593.47;4848622;29;45529;-78
2022/05/26 06:49:56;;;;;;;;;0.50;0.50;;;;;-143.39;100.00;63593.47;4846833;29;47136;-79
2022/05/26 06:52:31;;;;;;;;;0.00;0.00;;;;;-143.39;100.00;63593.47;4848579;29;45286;-79
2022/05/26 06:54:58;;;;;;;;;2.00;0.00;;;;;-143.39;100.00;63593.47;4848362;29;45312;-79
2022/05/26 06:57:25;;;;;;;;;0.50;0.00;;;;;-143.39;100.00;63593.47;4831599;29;45474;-79
2022/05/26 07:00:00;;;;;;;;;0.00;0.00;;;;;-143.39;100.00;63593.47;4848375;29;46175;-78
2022/05/26 07:02:28;;;;;;;;;0.50;0.00;;;;;-143.39;100.00;63593.47;4848223;29;45399;-78
2022/05/26 07:04:59;;;;;;;;;1.00;1.00;;;;;-143.39;100.00;63593.47;4847866;29;45400;-79
2022/05/26 07:07:35;;;;;;;;;;;;;;;;;;;;;
2022/05/26 07:10:13;;;;;;;;;0.00;0.00;;;;;-143.39;100.00;63593.47;4847202;29;74351;-79
2022/05/26 07:12:50;;;;;;;;;0.00;0.00;;;;;-143.39;100.00;63593.47;4848006;29;45515;-79
2022/05/26 07:15:25;;;;;;;;;0.00;0.00;;;;;-143.39;100.00;63593.47;4848216;29;45329;-79
2022/05/26 07:18:01;;;;;;;;;0.00;0.00;;;;;-143.39;100.00;63593.47;4831387;29;45271;-79
2022/05/26 07:20:44;;;;;;;;;;;;;;;;;;;;;
2022/05/26 07:23:20;;;;;;;;;0.00;0.00;;;;;-143.39;100.00;63593.47;4847177;29;72934;-79
2022/05/26 07:25:50;;;;;;;;;0.75;0.25;;;;;-143.39;100.00;63593.47;4846450;29;45241;-79
2022/05/26 07:28:23;;;;;;;;;0.00;0.00;;;;;-143.39;100.00;63593.47;4831077;29;45447;-79
2022/05/26 07:31:01;;;;;;;;;2.00;0.75;;;;;-143.39;100.00;63593.47;4847775;29;45641;-79
2022/05/26 07:33:30;;;;;;;;;2.00;0.00;;;;;-143.39;100.00;63593.47;4850706;29;45649;-79
2022/05/26 07:36:10;;;;;;;;;;;;;;;;;;;;;
2022/05/26 07:41:39;;;;;;;;;;;;;;;;;;;;;
2022/05/26 07:44:06;;;;;;;;;1.00;1.00;;;;;-143.39;100.00;63593.47;4847002;29;71963;-79
2022/05/26 07:46:41;;;;;;;;;0.75;0.00;;;;;-143.39;100.00;63593.47;4830904;29;45455;-79
2022/05/26 07:49:12;;;;;;;;;0.50;0.50;;;;;-143.39;100.00;63593.47;4830742;29;45486;-79
2022/05/26 07:52:00;;;;;;;;;0.25;0.00;;;;;-143.39;100.00;63593.47;4847323;29;45311;-79
2022/05/26 07:54:50;;;;;;;;;0.00;0.00;;;;;-143.39;100.00;63593.47;4847270;29;45403;-79
2022/05/26 07:57:36;;;;;;;;;;;;;;;;;;;;;
2022/05/26 08:00:06;;;;;;;;;0.00;0.00;;;;;-143.39;100.00;63593.47;4846566;29;73001;-79
2022/05/26 08:02:31;;;;;;;;;2.00;0.00;;;;;-143.39;100.00;63593.47;4830770;29;48223;-79
2022/05/26 08:04:59;;;;;;;;;1.00;1.00;;;;;-143.39;100.00;63593.47;4846940;29;45376;-79
2022/05/26 08:07:29;;;;;;;;;1.00;1.00;;;;;-143.39;100.00;63593.47;4847325;29;45296;-79
2022/05/26 08:09:54;;;;;;;;;0.75;0.75;;;;;-143.39;100.00;63593.47;4847466;29;45534;-79
2022/05/26 08:12:20;;;;;;;;;1.00;1.00;;;;;-143.39;100.00;63593.47;4847068;29;46290;-79
2022/05/26 08:15:11;;;;;;;;;2.25;1.00;;;;;-143.39;100.00;63593.47;4847155;29;45413;-79
2022/05/26 08:17:46;;;;;;;;;1.25;1.25;;;;;-143.39;100.00;63593.47;4847031;29;45560;-79
2022/05/26 08:20:14;;;;;;;;;1.50;1.50;;;;;-143.39;100.00;63593.47;4846946;29;45249;-79
2022/05/26 08:23:02;;;;;;;;;2.50;1.75;;;;;-143.39;100.00;63593.47;4847124;29;45488;-79
2022/05/26 08:25:57;;;;;;;;;;;;;;;;;;;;;
2022/05/26 08:28:44;;;;;;;;;;;;;;;;;;;;;
2022/05/26 08:31:38;;;;;;;;;;;;;;;;;;;;;
2022/05/26 08:34:13;;;;;;;;;4.50;3.00;;;;;-143.39;100.00;63593.47;4845882;29;74595;-79
2022/05/26 08:37:09;;;;;;;;;;;;;;;;;;;;;
2022/05/26 08:39:44;;;;;;;;;5.50;4.25;;;;;-143.39;100.00;63593.47;4841837;29;67650;-79
2022/05/26 08:42:34;;;;;;;;;7.00;6.00;;;;;-143.39;100.00;63593.47;4835660;29;45274;-78
2022/05/26 08:45:21;;;;;;;;;;;;;;;;;;;;;
2022/05/26 08:47:53;;;;;;;;;4.75;3.25;;;;;-143.39;100.00;63593.47;4845586;29;72970;-78
2022/05/26 08:50:45;;;;;;;;;2.25;2.25;;;;;-143.39;100.00;63593.47;4846519;29;45557;-78
2022/05/26 08:53:31;;;;;;;;;;;;;;;;;;;;;
2022/05/26 08:56:15;;;;;;;;;4.50;2.75;;;;;-143.39;100.00;63593.47;4845398;29;75441;-78
2022/05/26 08:59:05;;;;;;;;;;;;;;;;;;;;;
2022/05/26 09:01:43;;;;;;;;;;;;;;;;;;;;;
2022/05/26 09:04:12;;;;;;;;;3.00;2.50;;;;;-143.39;100.00;63593.47;4845212;29;73036;-78
2022/05/26 09:12:58;;;;;;;;;6.00;3.00;;;;;-143.39;100.00;63593.47;4849950;29;45388;-78
2022/05/26 09:15:35;;;;;;;;;1.75;1.00;;;;;-143.39;100.00;63593.47;4849904;29;45296;-79
2022/05/26 09:42:38;;;;;;;;;;;;;;;;;;;;;
2022/05/26 09:46:03;;;;;;;;;;;;;;;;;;;;;
2022/05/26 09:49:18;;;;;;;;;;;;;;;;;;;;;
2022/05/26 10:09:20;;;;;;;;;;;;;;;;;;;;;
2022/05/26 10:19:24;;;;;;;;;;;;;;;;;;;;;
2022/05/26 10:22:39;;;;;;;;;4.00;3.00;;;;;-143.39;100.00;63593.47;4772949;29;72730;-79
2022/05/26 10:26:16;;;;;;;;;;;;;;;;;;;;;
2022/05/26 10:29:41;;;;;;;;;;;;;;;;;;;;;
2022/05/26 10:33:04;;;;;;;;;;;;;;;;;;;;;
2022/05/26 11:23:06;;;;;;;;;;;;;;;;;;;;;
2022/05/26 11:43:11;;;;;;;;;1.00;1.00;;;;;-143.39;100.00;63593.47;4703738;30;45355;-79
2022/05/26 11:46:08;;;;;;;;;;;;;;;;;;;;;
2022/05/26 11:55:27;;;;;;;;;;;;;;;;;;;;;
2022/05/26 12:04:48;;;;;;;;;;;;;;;;;;;;;
2022/05/26 12:08:16;;;;;;;;;3.50;2.50;;;;;-143.39;100.00;63593.47;4827895;29;68761;-79
2022/05/26 12:15:10;;;;;;;;;;;;;;;;;;;;;
2022/05/26 12:38:34;;;;;;;;;1.00;1.00;;;;;-143.39;100.00;63593.47;4818716;29;45586;-79
2022/05/26 12:48:22;;;;;;;;;;;;;;;;;;;;;
2022/05/26 12:55:00;;;;;;;;;;;;;;;;;;;;;
2022/05/26 13:01:18;;;;;;;;;;;;;;;;;;;;;
2022/05/26 13:04:25;;;;;;;;;;;;;;;;;;;;;
2022/05/26 13:14:01;;;;;;;;;;;;;;;;;;;;;
2022/05/26 13:16:41;;;;;;;;;;;;;;;;;;;;;
2022/05/26 13:22:43;;;;;;;;;;;;;;;;;;;;;
2022/05/26 13:29:17;;;;;;;;;;;;;;;;;;;;;
2022/05/26 13:39:16;;;;;;;;;;;;;;;;;;;;;
2022/05/26 13:42:34;;;;;;;;;;;;;;;;;;;;;
2022/05/26 13:49:07;;;;;;;;;;;;;;;;;;;;;
2022/05/26 13:52:47;;;;;;;;;;;;;;;;;;;;;
2022/05/26 13:58:49;;;;;;;;;3.00;2.25;;;;;-143.39;100.00;63593.47;4823248;29;46372;-79
2022/05/26 14:33:14;;;;;;;;;;;;;;;;;;;;;
2022/05/26 14:40:18;;;;;;;;;;;;;;;;;;;;;
2022/05/26 14:49:48;;;;;;;;;;;;;;;;;;;;;
2022/05/26 15:00:08;;;;;;;;;;;;;;;;;;;;;
2022/05/26 15:13:45;;;;;;;;;;;;;;;;;;;;;
2022/05/26 15:17:10;;;;;;;;;;;;;;;;;;;;;
2022/05/26 15:20:46;;;;;;;;;;;;;;;;;;;;;
2022/05/26 15:27:21;;;;;;;;;;;;;;;;;;;;;
2022/05/26 15:36:53;;;;;;;;;;;;;;;;;;;;;
2022/05/26 15:46:07;;;;;;;;;;;;;;;;;;;;;
2022/05/26 15:48:56;;;;;;;;;;;;;;;;;;;;;
2022/05/26 15:58:26;;;;;;;;;;;;;;;;;;;;;
2022/05/26 16:01:48;;;;;;;;;4.25;2.75;;;;;-143.39;100.00;63593.47;4825965;29;73069;-79
2022/05/26 16:05:08;;;;;;;;;2.25;1.00;;;;;-143.39;100.00;63593.47;4828641;29;45479;-79
2022/05/26 16:08:03;;;;;;;;;;;;;;;;;;;;;
2022/05/26 16:20:36;;;;;;;;;;;;;;;;;;;;;
2022/05/26 16:29:59;;;;;;;;;;;;;;;;;;;;;
2022/05/26 16:32:58;;;;;;;;;;;;;;;;;;;;;
2022/05/26 16:39:24;;;;;;;;;;;;;;;;;;;;;
2022/05/26 16:45:35;;;;;;;;;;;;;;;;;;;;;
2022/05/26 16:48:36;;;;;;;;;;;;;;;;;;;;;
2022/05/26 16:51:50;;;;;;;;;;;;;;;;;;;;;
2022/05/26 16:54:35;;;;;;;;;;;;;;;;;;;;;
2022/05/26 16:57:12;;;;;;;;;5.00;4.00;;;;;-143.39;100.00;63593.47;4827302;29;73239;-79
2022/05/26 17:03:19;;;;;;;;;;;;;;;;;;;;;
2022/05/26 17:09:06;;;;;;;;;;;;;;;;;;;;;
2022/05/26 17:11:56;;;;;;;;;;;;;;;;;;;;;
2022/05/26 17:24:25;;;;;;;;;;;;;;;;;;;;;
2022/05/26 17:27:03;;;;;;;;;;;;;;;;;;;;;
2022/05/26 17:29:55;;;;;;;;;;;;;;;;;;;;;
2022/05/26 17:32:54;;;;;;;;;6.50;2.50;;;;;-143.39;100.00;63593.47;4791181;29;72987;-79
2022/05/26 17:35:20;;;;;;;;;4.50;1.50;;;;;-143.39;100.00;63593.47;4776784;29;48189;-79
2022/05/26 17:38:24;;;;;;;;;;;;;;;;;;;;;
2022/05/26 17:41:13;;;;;;;;;;;;;;;;;;;;;
2022/05/26 17:43:53;;;;;;;;;;;;;;;;;;;;;
2022/05/26 17:46:24;;;;;;;;;3.25;3.25;;;;;-143.39;100.00;63593.47;4791301;29;75229;-79
2022/05/26 17:49:05;;;;;;;;;;;;;;;;;;;;;
2022/05/26 17:51:43;;;;;;;;;;;;;;;;;;;;;
2022/05/26 17:54:25;;;;;;;;;3.00;2.50;;;;;-143.39;100.00;63593.47;4830047;29;71803;-79
2022/05/26 17:57:28;;;;;;;;;;;;;;;;;;;;;
2022/05/26 18:03:03;;;;;;;;;;;;;;;;;;;;;
2022/05/26 18:05:44;;;;;;;;;;;;;;;;;;;;;
2022/05/26 18:08:17;;;;;;;;;2.75;2.00;;;;;-143.39;100.00;63593.47;4829782;29;75740;-79
2022/05/26 18:10:58;;;;;;;;;2.50;2.50;;;;;-143.39;100.00;63593.47;4830613;29;45508;-79
2022/05/26 18:13:36;;;;;;;;;2.50;2.50;;;;;-143.39;100.00;63593.47;4828976;29;45286;-79
2022/05/26 18:16:15;;;;;;;;;;;;;;;;;;;;;
2022/05/26 18:19:05;;;;;;;;;;;;;;;;;;;;;
2022/05/26 18:22:09;;;;;;;;;;;;;;;;;;;;;
2022/05/26 18:24:44;;;;;;;;;4.00;2.00;;;;;-143.39;100.00;63593.47;4826223;29;68770;-79
2022/05/26 18:27:42;;;;;;;;;;;;;;;;;;;;;
2022/05/26 18:30:13;;;;;;;;;2.75;1.50;;;;;-143.39;100.00;63593.47;4829272;29;74538;-79
2022/05/26 18:32:48;;;;;;;;;2.00;2.00;;;;;-143.39;100.00;63593.47;4828464;29;45439;-79
2022/05/26 18:35:39;;;;;;;;;2.75;2.00;;;;;-143.39;100.00;63593.47;4828585;29;45344;-79
2022/05/26 18:38:18;;;;;;;;;;;;;;;;;;;;;
2022/05/26 18:40:53;;;;;;;;;;;;;;;;;;;;;
2022/05/26 18:43:58;;;;;;;;;;;;;;;;;;;;;
2022/05/26 18:46:43;;;;;;;;;;;;;;;;;;;;;
2022/05/26 18:49:13;;;;;;;;;4.00;2.75;;;;;-143.39;100.00;63593.47;4828775;29;72995;-79
2022/05/26 18:52:04;;;;;;;;;3.75;2.50;;;;;-143.39;100.00;63593.47;4828686;29;47024;-79
2022/05/26 18:54:41;;;;;;;;;;;;;;;;;;;;;
2022/05/26 18:57:32;;;;;;;;;;;;;;;;;;;;;
2022/05/26 19:00:08;;;;;;;;;;;;;;;;;;;;;
2022/05/26 19:02:46;;;;;;;;;;;;;;;;;;;;;
2022/05/26 19:05:16;;;;;;;;;3.25;3.25;;;;;-143.39;100.00;63593.47;4837794;29;71732;-79
2022/05/26 19:07:44;;;;;;;;;6.25;5.00;;;;;-143.39;100.00;63593.47;4829753;29;45338;-79
2022/05/26 19:10:22;;;;;;;;;;;;;;;;;;;;;
2022/05/26 19:12:54;;;;;;;;;6.75;6.25;;;;;-143.39;100.00;63593.47;4828638;29;74111;-79
2022/05/26 19:15:32;;;;;;;;;;;;;;;;;;;;;
2022/05/26 19:18:09;;;;;;;;;6.75;6.25;;;;;-143.39;100.00;63593.47;4828480;29;69967;-78
2022/05/26 19:20:49;;;;;;;;;;;;;;;;;;;;;
2022/05/26 19:23:24;;;;;;;;;8.00;7.00;;;;;-143.39;100.00;63593.47;4828731;29;74085;-79
2022/05/26 19:26:03;;;;;;;;;5.50;4.25;;;;;-143.39;100.00;63593.47;4829227;29;45325;-79
2022/05/26 19:28:44;;;;;;;;;7.50;5.50;;;;;-143.39;100.00;63593.47;4829717;29;45241;-79
2022/05/26 19:31:38;;;;;;;;;7.00;6.25;;;;;-143.39;100.00;63593.47;4832528;29;45641;-79
2022/05/26 19:34:05;;;;;;;;;9.75;6.00;;;;;-143.39;100.00;63593.47;4829013;29;45450;-78
2022/05/26 19:36:42;;;;;;;;;4.25;4.25;;;;;-143.39;100.00;63593.47;4829404;29;45465;-79
2022/05/26 19:39:19;;;;;;;;;3.75;3.25;;;;;-143.39;100.00;63593.47;4828052;29;45349;-79
2022/05/26 19:41:48;;;;;;;;;6.00;4.00;;;;;-143.39;100.00;63593.47;4829162;29;45225;-79
2022/05/26 19:44:30;;;;;;;;;;;;;;;;;;;;;
2022/05/26 19:46:57;;;;;;;;;5.50;5.00;;;;;-143.39;100.00;63593.47;4828400;29;71733;-79
2022/05/26 19:49:42;;;;;;;;;;;;;;;;;;;;;
2022/05/26 19:52:23;;;;;;;;;;;;;;;;;;;;;
2022/05/26 19:54:59;;;;;;;;;;;;;;;;;;;;;
2022/05/26 19:57:39;;;;;;;;;;;;;;;;;;;;;
2022/05/26 20:00:17;;;;;;;;;;;;;;;;;;;;;
2022/05/26 20:02:47;;;;;;;;;6.50;4.00;;;;;-143.39;100.00;63593.47;4827657;29;72844;-78
2022/05/26 20:05:15;;;;;;;;;5.00;3.00;;;;;-143.39;100.00;63593.47;4828387;29;45360;-78
2022/05/26 20:08:16;;;;;;;;;;;;;;;;;;;;;
2022/05/26 20:10:57;;;;;;;;;5.50;4.75;;;;;-143.39;100.00;63593.47;4828011;29;69276;-79
2022/05/26 20:13:50;;;;;;;;;;;;;;;;;;;;;
2022/05/26 20:16:29;;;;;;;;;3.00;3.00;;;;;-143.39;100.00;63593.47;4817785;29;75709;-79
2022/05/26 20:19:09;;;;;;;;;4.00;4.00;;;;;-143.39;100.00;63593.47;4826948;29;45557;-79
2022/05/26 20:21:46;;;;;;;;;6.00;4.00;;;;;-143.39;100.00;63593.47;4828785;29;45470;-79
2022/05/26 20:24:21;;;;;;;;;5.00;5.00;;;;;-143.39;100.00;63593.47;4827364;29;45813;-79
2022/05/26 20:26:54;;;;;;;;;5.50;5.00;;;;;-143.39;100.00;63593.47;4828431;29;45541;-79
2022/05/26 20:29:33;;;;;;;;;6.00;5.00;;;;;-143.39;100.00;63593.47;4828595;29;45431;-79
2022/05/26 20:32:10;;;;;;;;;6.25;4.00;;;;;-143.39;100.00;63593.47;4833104;29;45295;-79
2022/05/26 20:34:39;;;;;;;;;5.00;3.75;;;;;-143.39;100.00;63593.47;4828216;29;45618;-79
2022/05/26 20:37:17;;;;;;;;;3.75;3.75;;;;;-143.39;100.00;63593.47;4828758;29;45636;-79
2022/05/26 20:39:49;;;;;;;;;4.75;3.00;;;;;-143.39;100.00;63593.47;4828395;29;45488;-79
2022/05/26 20:42:17;;;;;;;;;5.00;3.00;;;;;-143.39;100.00;63593.47;4827321;29;45420;-79
2022/05/26 20:44:50;;;;;;;;;3.75;2.75;;;;;-143.39;100.00;63593.47;4828281;29;45484;-79
2022/05/26 20:47:16;;;;;;;;;2.00;2.00;;;;;-143.39;100.00;63593.47;4828367;29;45475;-79
2022/05/26 20:50:06;;;;;;;;;4.75;3.50;;;;;-143.39;100.00;63593.47;4826503;29;45301;-79
2022/05/26 20:52:41;;;;;;;;;;;;;;;;;;;;;
2022/05/26 20:55:08;;;;;;;;;2.25;2.25;;;;;-143.39;100.00;63593.47;4827725;29;73245;-80
2022/05/26 20:57:42;;;;;;;;;2.00;2.00;;;;;-143.39;100.00;63593.47;4828090;29;46293;-79
2022/05/26 21:00:22;;;;;;;;;3.50;2.50;;;;;-143.39;100.00;63593.47;4826987;29;45454;-80
2022/05/26 21:02:50;;;;;;;;;3.75;2.75;;;;;-143.39;100.00;63593.47;4828215;29;45297;-79
2022/05/26 21:05:16;;;;;;;;;2.50;2.50;;;;;-143.39;100.00;63593.47;4829889;29;45490;-80
2022/05/26 21:07:47;;;;;;;;;1.00;1.00;;;;;-143.39;100.00;63593.47;4831347;29;45483;-79
2022/05/26 21:10:15;;;;;;;;;7.25;5.75;;;;;-143.39;100.00;63593.47;4830380;29;45570;-79
2022/05/26 21:13:07;;;;;;;;;3.25;3.00;;;;;-143.39;100.00;63593.47;4830070;29;45542;-80
2022/05/26 21:15:31;;;;;;;;;7.50;2.00;;;;;-143.39;100.00;63593.47;4829873;29;45400;-80
2022/05/26 21:17:57;;;;;;;;;3.75;2.25;;;;;-143.39;100.00;63593.47;4831274;29;45253;-80
2022/05/26 21:20:23;;;;;;;;;2.50;1.00;;;;;-143.39;100.00;63593.47;4829649;29;45261;-79
2022/05/26 21:22:56;;;;;;;;;2.25;1.75;;;;;-143.39;100.00;63593.47;4831624;29;45446;-79
2022/05/26 21:25:24;;;;;;;;;1.75;1.75;;;;;-143.39;100.00;63593.47;4831161;29;45278;-80
2022/05/26 21:27:49;;;;;;;;;3.25;2.00;;;;;-143.39;100.00;63593.47;4830989;29;45302;-79
2022/05/26 21:30:30;;;;;;;;;;;;;;;;;;;;;
2022/05/26 21:32:56;;;;;;;;;6.00;0.00;;;;;-143.39;100.00;63593.47;4836022;29;68097;-80
2022/05/26 21:35:34;;;;;;;;;;;;;;;;;;;;;
2022/05/26 21:38:02;;;;;;;;;2.50;0.75;;;;;-143.39;100.00;63593.47;4830236;29;75398;-79
2022/05/26 21:40:32;;;;;;;;;3.25;1.75;;;;;-143.39;100.00;63593.47;4817680;29;46221;-79
2022/05/26 21:43:10;;;;;;;;;;;;;;;;;;;;;
2022/05/26 21:45:37;;;;;;;;;2.75;2.75;;;;;-143.39;100.00;63593.47;4829986;29;73030;-79
2022/05/26 21:48:10;;;;;;;;;1.00;1.00;;;;;-143.39;100.00;63593.47;4829205;29;46216;-79
2022/05/26 21:50:37;;;;;;;;;2.25;2.00;;;;;-143.39;100.00;63593.47;4829138;29;45454;-79
2022/05/26 21:53:03;;;;;;;;;2.75;2.75;;;;;-143.39;100.00;63593.47;4829602;29;45437;-79
2022/05/26 21:55:30;;;;;;;;;1.25;1.00;;;;;-143.39;100.00;63593.47;4829207;29;45348;-79
2022/05/26 21:58:05;;;;;;;;;2.25;0.75;;;;;-143.39;100.00;63593.47;4830344;29;46251;-79
2022/05/26 22:00:40;;;;;;;;;4.00;2.25;;;;;-143.39;100.00;63593.47;4830797;29;45472;-79
2022/05/26 22:03:15;;;;;;;;;2.25;1.50;;;;;-143.39;100.00;63593.47;4829231;29;45302;-79
2022/05/26 22:11:11;;;;;;;;;0.00;0.00;;;;;-143.39;100.00;63593.47;4830683;29;45418;-79
2022/05/26 22:13:36;;;;;;;;;2.50;0.50;;;;;-143.39;100.00;63593.47;4829912;29;45297;-79
2022/05/26 22:16:04;;;;;;;;;1.25;1.25;;;;;-143.39;100.00;63593.47;4830258;29;45232;-79
2022/05/26 22:18:32;;;;;;;;;1.00;1.00;;;;;-143.39;100.00;63593.47;4830099;29;46394;-79
2022/05/26 22:21:08;;;;;;;;;0.25;0.25;;;;;-143.39;100.00;63593.47;4828668;29;45465;-78
2022/05/26 22:23:35;;;;;;;;;0.00;0.00;;;;;-143.39;100.00;63593.47;4829094;29;45403;-78
2022/05/26 22:26:01;;;;;;;;;0.25;0.25;;;;;-143.39;100.00;63593.47;4830381;29;45165;-78
2022/05/26 22:28:31;;;;;;;;;2.25;1.25;;;;;-143.39;100.00;63593.47;4829006;29;47961;-78
2022/05/26 22:30:59;;;;;;;;;2.75;1.50;;;;;-143.39;100.00;63593.47;4831434;29;45814;-78
2022/05/26 22:33:24;;;;;;;;;2.25;1.25;;;;;-143.39;100.00;63593.47;4828957;29;45438;-78
2022/05/26 22:35:50;;;;;;;;;0.25;0.25;;;;;-143.39;100.00;63593.47;4828728;29;45375;-78
2022/05/26 22:38:22;;;;;;;;;2.25;0.00;;;;;-143.39;100.00;63593.47;4828724;29;46067;-78
2022/05/26 22:40:48;;;;;;;;;1.00;1.00;;;;;-143.39;100.00;63593.47;4830477;29;45599;-78
2022/05/26 22:43:20;;;;;;;;;0.00;0.00;;;;;-143.39;100.00;63593.47;4828947;29;45521;-78
2022/05/26 22:45:54;;;;;;;;;3.75;2.00;;;;;-143.39;100.00;63593.47;4830173;29;45474;-78
2022/05/26 22:48:23;;;;;;;;;2.75;1.75;;;;;-143.39;100.00;63593.47;4828576;29;48051;-79
2022/05/26 22:50:51;;;;;;;;;1.75;1.75;;;;;-143.39;100.00;63593.47;4829813;29;45569;-79
2022/05/26 22:53:21;;;;;;;;;0.75;0.75;;;;;-143.39;100.00;63593.47;4828678;29;45288;-78
2022/05/26 22:55:48;;;;;;;;;0.00;0.00;;;;;-143.39;100.00;63593.47;4830081;29;45376;-78
2022/05/26 22:58:30;;;;;;;;;1.25;0.50;;;;;-143.39;100.00;63593.47;4828409;29;48046;-78
2022/05/26 23:00:55;;;;;;;;;0.75;0.75;;;;;-143.39;100.00;63593.47;4828617;29;45665;-79
2022/05/26 23:03:20;;;;;;;;;0.00;0.00;;;;;-143.39;100.00;63593.47;4828370;29;45368;-78
2022/05/26 23:05:46;;;;;;;;;1.00;1.00;;;;;-143.39;100.00;63593.47;4829377;29;45394;-78
2022/05/26 23:08:12;;;;;;;;;3.50;1.00;;;;;-143.39;100.00;63593.47;4829804;29;46200;-78
2022/05/26 23:10:50;;;;;;;;;0.00;0.00;;;;;-143.39;100.00;63593.47;4828472;29;45479;-78
2022/05/26 23:13:19;;;;;;;;;1.00;1.00;;;;;-143.39;100.00;63593.47;4828507;29;45542;-79
2022/05/26 23:15:44;;;;;;;;;2.00;0.75;;;;;-143.39;100.00;63593.47;4829587;29;45328;-78
2022/05/26 23:18:17;;;;;;;;;0.00;0.00;;;;;-143.39;100.00;63593.47;4829630;29;45282;-78
2022/05/26 23:20:43;;;;;;;;;0.00;0.00;;;;;-143.39;100.00;63593.47;4829569;29;45472;-78
2022/05/26 23:23:15;;;;;;;;;1.00;1.00;;;;;-143.39;100.00;63593.47;4829848;29;45225;-78
2022/05/26 23:25:41;;;;;;;;;2.00;1.00;;;;;-143.39;100.00;63593.47;4827974;29;45653;-78
2022/05/26 23:28:07;;;;;;;;;1.50;1.50;;;;;-143.39;100.00;63593.47;4828107;29;47909;-79
2022/05/26 23:30:38;;;;;;;;;1.00;1.00;;;;;-143.39;100.00;63593.47;4829359;29;45361;-78
2022/05/26 23:33:04;;;;;;;;;2.75;1.75;;;;;-143.39;100.00;63593.47;4828046;29;45469;-78
2022/05/26 23:35:30;;;;;;;;;2.00;0.00;;;;;-143.39;100.00;63593.47;4827850;29;45446;-78
2022/05/26 23:38:05;;;;;;;;;1.00;1.00;;;;;-143.39;100.00;63593.47;4829294;29;45453;-78
2022/05/26 23:43:21;;;;;;;;;3.00;1.00;;;;;-143.39;100.00;63593.47;4817820;29;45531;-78
2022/05/26 23:43:24;;;;;;;;;1.00;1.00;;;;;-143.39;100.00;63593.47;4829355;29;45452;-78
2022/05/26 23:46:06;;;;;;;;;;;;;;;;;;;;;
2022/05/26 23:48:35;;;;;;;;;2.00;1.00;;;;;-143.39;100.00;63593.47;4827833;29;75731;-78
2022/05/26 23:51:00;;;;;;;;;1.00;1.00;;;;;-143.39;100.00;63593.47;4827841;29;45312;-78
2022/05/26 23:53:29;;;;;;;;;2.00;1.50;;;;;-143.39;100.00;63593.47;4827983;29;45265;-78
2022/05/26 23:58:42;;;;;;;;;2.00;1.75;;;;;-143.39;100.00;63593.47;4829095;29;45354;-78
